Time;durP1;ratioP1;P1;durP2;ratioP2;P2;SDS_P1;SDS_P2;PMS_P1;PMS_P2;Temp;Humidity;BMP_temperature;BMP_pressure;BME280_temperature;BME280_humidity;BME280_pressure;Samples;Min_cycle;Max_cycle;Signal;HPM_P1;HPM_P2
2023/06/13 00:01:48;;;;;;;15.68;3.90;;;24.20;50.40;;;;;;5010428;28;20018;-55
2023/06/13 00:04:21;;;;;;;10.45;3.72;;;24.20;50.50;;;;;;5011742;28;20390;-55
2023/06/13 00:06:53;;;;;;;16.30;3.47;;;24.20;50.30;;;;;;5011719;28;20129;-57
2023/06/13 00:09:19;;;;;;;14.10;3.47;;;24.20;50.60;;;;;;5011928;28;20030;-58
2023/06/13 00:11:46;;;;;;;9.85;3.20;;;24.20;50.50;;;;;;5011683;28;20056;-58
2023/06/13 00:14:12;;;;;;;9.88;3.40;;;24.20;50.30;;;;;;5011760;28;20444;-58
2023/06/13 00:16:39;;;;;;;8.80;3.40;;;24.20;50.40;;;;;;5011228;28;20037;-58
2023/06/13 00:19:05;;;;;;;12.35;3.70;;;24.20;50.30;;;;;;5011482;28;20084;-53
2023/06/13 00:21:35;;;;;;;11.25;3.50;;;24.20;50.40;;;;;;5011469;28;20026;-52
2023/06/13 00:24:02;;;;;;;8.07;3.25;;;24.20;50.30;;;;;;5012295;28;20026;-52
2023/06/13 00:26:27;;;;;;;12.90;3.42;;;24.20;50.20;;;;;;5015106;28;20025;-52
2023/06/13 00:28:54;;;;;;;8.50;3.25;;;24.20;50.30;;;;;;5013312;28;20028;-56
2023/06/13 00:31:19;;;;;;;11.98;3.38;;;24.20;50.30;;;;;;5014953;28;20113;-53
2023/06/13 00:33:45;;;;;;;16.73;3.88;;;24.20;50.30;;;;;;5013604;28;20030;-53
2023/06/13 00:36:16;;;;;;;11.38;3.38;;;24.20;50.30;;;;;;5013495;28;20076;-57
2023/06/13 00:38:42;;;;;;;11.95;3.38;;;24.20;50.30;;;;;;5014302;28;20025;-58
2023/06/13 00:41:08;;;;;;;8.98;3.05;;;24.20;50.40;;;;;;5015146;28;20505;-57
2023/06/13 00:43:34;;;;;;;8.60;3.30;;;24.20;50.30;;;;;;5013813;28;20049;-56
2023/06/13 00:46:00;;;;;;;6.43;2.85;;;24.20;50.20;;;;;;5015360;28;20105;-58
2023/06/13 00:48:27;;;;;;;8.95;3.20;;;24.20;50.20;;;;;;5013461;28;20537;-57
2023/06/13 00:50:54;;;;;;;11.05;2.85;;;24.20;50.20;;;;;;5015005;28;20036;-56
2023/06/13 00:53:21;;;;;;;9.02;3.15;;;24.20;50.30;;;;;;5013196;28;20033;-58
2023/06/13 00:55:49;;;;;;;9.30;3.15;;;24.20;50.30;;;;;;5014878;28;20033;-56
2023/06/13 00:58:16;;;;;;;8.98;3.20;;;24.10;50.80;;;;;;5014354;28;20567;-57
2023/06/13 01:00:45;;;;;;;6.53;2.90;;;24.20;50.20;;;;;;5014657;28;20056;-57
2023/06/13 01:03:15;;;;;;;9.65;2.90;;;24.20;50.30;;;;;;5013340;28;20471;-57
2023/06/13 01:05:42;;;;;;;5.80;2.75;;;24.20;50.30;;;;;;5013414;28;20111;-57
2023/06/13 01:08:13;;;;;;;6.57;2.72;;;24.20;50.30;;;;;;5014596;28;20578;-58
2023/06/13 01:10:40;;;;;;;7.47;3.03;;;24.20;50.20;;;;;;5014338;28;20026;-57
2023/06/13 01:13:16;;;;;;;5.55;2.90;;;24.20;50.30;;;;;;5013274;28;20033;-58
2023/06/13 01:15:54;;;;;;;7.70;3.05;;;24.20;50.40;;;;;;5013194;28;20221;-57
2023/06/13 01:18:24;;;;;;;7.13;3.08;;;24.20;50.30;;;;;;5013702;28;20037;-58
2023/06/13 01:20:56;;;;;;;5.43;2.92;;;24.20;50.20;;;;;;5013215;28;20041;-58
2023/06/13 01:23:32;;;;;;;5.55;2.83;;;24.20;50.30;;;;;;5013226;28;20037;-55
2023/06/13 01:26:28;;;;;;;7.72;2.70;;;24.20;50.20;;;;;;5012934;28;20029;-58
2023/06/13 01:28:56;;;;;;;5.00;2.95;;;24.20;50.20;;;;;;5013320;28;20099;-58
2023/06/13 01:31:23;;;;;;;7.25;3.08;;;24.20;50.30;;;;;;5012645;28;20503;-57
2023/06/13 01:33:50;;;;;;;7.50;3.03;;;24.20;50.20;;;;;;5012768;28;20033;-56
2023/06/13 01:36:17;;;;;;;5.75;2.60;;;24.20;50.30;;;;;;5014097;28;20029;-57
2023/06/13 01:38:43;;;;;;;8.13;3.17;;;24.20;50.30;;;;;;4995806;28;20030;-57
2023/06/13 01:41:11;;;;;;;7.25;3.25;;;24.20;50.30;;;;;;5012515;28;20061;-57
2023/06/13 01:43:36;;;;;;;9.63;3.10;;;24.20;50.30;;;;;;4996500;28;20112;-56
2023/06/13 01:46:26;;;;;;;5.68;2.92;;;24.20;50.20;;;;;;5013801;28;20250;-57
2023/06/13 01:49:07;;;;;;;5.53;2.47;;;24.20;50.20;;;;;;5012531;28;20038;-57
2023/06/13 01:51:55;;;;;;;7.57;2.70;;;24.20;50.20;;;;;;5013720;28;20113;-57
2023/06/13 01:54:23;;;;;;;5.45;2.80;;;24.20;50.30;;;;;;5012541;28;20026;-56
2023/06/13 01:56:54;;;;;;;6.18;2.47;;;24.20;50.20;;;;;;5013346;28;20069;-55
2023/06/13 01:59:25;;;;;;;5.47;2.67;;;24.20;50.30;;;;;;5012348;28;20025;-59
2023/06/13 02:01:53;;;;;;;5.47;2.60;;;24.20;50.30;;;;;;5012042;28;20052;-55
2023/06/13 02:04:19;;;;;;;7.05;2.55;;;24.20;50.20;;;;;;5013287;28;20504;-55
2023/06/13 02:06:45;;;;;;;4.25;2.47;;;24.20;50.30;;;;;;5012822;28;20026;-52
2023/06/13 02:09:12;;;;;;;4.55;2.55;;;24.20;50.40;;;;;;5012018;28;20033;-54
2023/06/13 02:11:38;;;;;;;7.90;2.83;;;24.20;50.20;;;;;;5011690;28;20041;-56
2023/06/13 02:14:06;;;;;;;8.82;2.97;;;24.20;50.30;;;;;;5013025;28;20036;-54
2023/06/13 02:16:32;;;;;;;7.00;2.60;;;24.20;50.20;;;;;;5011821;28;20054;-55
2023/06/13 02:19:01;;;;;;;4.72;2.50;;;24.20;50.30;;;;;;5011503;28;20457;-56
2023/06/13 02:21:30;;;;;;;8.57;2.65;;;24.20;50.30;;;;;;5012693;28;20029;-57
2023/06/13 02:23:56;;;;;;;6.22;2.60;;;24.20;50.20;;;;;;5012976;28;20058;-55
2023/06/13 02:26:23;;;;;;;5.90;2.70;;;24.20;50.30;;;;;;5012899;28;20049;-52
2023/06/13 02:28:49;;;;;;;5.28;2.45;;;24.20;50.40;;;;;;5012570;28;20025;-57
2023/06/13 02:31:17;;;;;;;6.20;2.72;;;24.20;50.30;;;;;;5012425;28;20030;-57
2023/06/13 02:33:43;;;;;;;6.32;2.60;;;24.20;50.30;;;;;;5011307;28;20032;-56
2023/06/13 02:36:12;;;;;;;6.88;2.67;;;24.20;50.40;;;;;;5012720;28;20029;-53
2023/06/13 02:38:41;;;;;;;;;;;24.20;50.30;;;;;;5012593;28;20037;-57
2023/06/13 02:41:07;;;;;;;5.60;2.33;;;24.20;50.30;;;;;;5012714;28;20001;-54
2023/06/13 02:43:35;;;;;;;4.90;2.50;;;24.20;50.30;;;;;;5011256;28;20429;-54
2023/06/13 02:46:01;;;;;;;7.05;2.83;;;24.20;50.30;;;;;;5012596;28;20040;-56
2023/06/13 02:48:27;;;;;;;6.25;2.63;;;24.20;50.40;;;;;;5010948;28;20145;-58
2023/06/13 02:50:57;;;;;;;6.68;2.80;;;24.20;50.30;;;;;;5011149;28;20026;-57
2023/06/13 02:53:22;;;;;;;6.75;2.40;;;24.20;50.30;;;;;;5011504;28;20109;-55
2023/06/13 02:55:48;;;;;;;6.50;2.60;;;24.20;50.40;;;;;;5012131;28;20153;-55
2023/06/13 02:58:14;;;;;;;5.13;2.28;;;24.20;50.30;;;;;;5011861;28;20029;-56
2023/06/13 03:00:41;;;;;;;6.50;2.50;;;24.20;50.20;;;;;;5012678;28;20022;-52
2023/06/13 03:03:11;;;;;;;3.72;2.50;;;24.20;50.30;;;;;;5011468;28;20386;-56
2023/06/13 03:05:37;;;;;;;5.03;2.55;;;24.20;50.20;;;;;;5011199;28;20026;-56
2023/06/13 03:08:04;;;;;;;9.70;2.30;;;24.20;50.20;;;;;;5011205;28;20080;-55
2023/06/13 03:10:32;;;;;;;6.35;2.45;;;24.20;50.10;;;;;;5011144;28;20096;-53
2023/06/13 03:12:59;;;;;;;14.00;2.58;;;24.20;50.20;;;;;;5011144;28;20034;-55
2023/06/13 03:15:25;;;;;;;7.15;2.70;;;24.20;50.20;;;;;;5011064;28;20548;-57
2023/06/13 03:17:51;;;;;;;4.85;2.28;;;24.20;50.20;;;;;;5010818;28;20033;-57
2023/06/13 03:20:20;;;;;;;7.10;2.38;;;24.20;50.20;;;;;;5012439;28;20456;-57
2023/06/13 03:22:47;;;;;;;;;;;24.20;50.20;;;;;;5011936;28;20026;-57
2023/06/13 03:25:16;;;;;;;4.30;2.47;;;24.20;50.30;;;;;;5012657;28;19915;-57
2023/06/13 03:27:46;;;;;;;6.22;2.17;;;24.20;50.30;;;;;;5012244;28;20076;-58
2023/06/13 03:30:12;;;;;;;6.78;2.67;;;24.20;50.30;;;;;;5012395;28;20057;-54
2023/06/13 03:32:41;;;;;;;4.40;2.23;;;24.20;50.40;;;;;;5011149;28;20038;-55
2023/06/13 03:35:07;;;;;;;6.05;2.75;;;24.20;50.40;;;;;;5012133;28;20140;-53
2023/06/13 03:37:33;;;;;;;6.28;2.30;;;24.20;50.40;;;;;;5010363;28;20030;-54
2023/06/13 03:39:59;;;;;;;5.10;2.33;;;24.20;50.40;;;;;;5010963;28;20033;-55
2023/06/13 03:42:24;;;;;;;4.30;2.20;;;24.20;50.40;;;;;;5010849;28;20060;-56
2023/06/13 03:44:50;;;;;;;4.57;2.25;;;24.20;50.40;;;;;;5010901;28;20022;-55
2023/06/13 03:47:16;;;;;;;4.95;2.28;;;24.20;50.50;;;;;;5011737;28;20042;-57
2023/06/13 03:49:43;;;;;;;5.68;2.22;;;24.20;50.40;;;;;;5010764;28;20105;-58
2023/06/13 03:52:10;;;;;;;4.88;2.55;;;24.20;50.50;;;;;;5010746;28;20041;-56
2023/06/13 03:54:36;;;;;;;4.07;2.22;;;24.20;50.40;;;;;;5010715;28;20034;-55
2023/06/13 03:57:02;;;;;;;5.40;2.50;;;24.20;50.50;;;;;;5010252;28;20041;-57
2023/06/13 03:59:28;;;;;;;3.78;2.13;;;24.20;50.40;;;;;;5013167;28;20072;-55
2023/06/13 04:01:54;;;;;;;3.65;2.33;;;24.20;50.50;;;;;;5014345;28;20505;-55
2023/06/13 04:04:20;;;;;;;7.65;2.53;;;24.20;50.40;;;;;;5014538;28;20507;-54
2023/06/13 04:06:48;;;;;;;4.47;2.25;;;24.20;50.50;;;;;;5014174;28;20026;-53
2023/06/13 04:09:16;;;;;;;6.72;2.10;;;24.20;50.50;;;;;;5015594;28;20033;-52
2023/06/13 04:11:42;;;;;;;7.28;2.30;;;24.10;50.50;;;;;;5015509;28;20045;-58
2023/06/13 04:14:08;;;;;;;4.65;2.05;;;24.20;50.50;;;;;;5015399;28;20030;-56
2023/06/13 04:16:34;;;;;;;3.83;2.08;;;24.20;50.50;;;;;;5014355;28;20069;-56
2023/06/13 04:19:01;;;;;;;4.38;2.28;;;24.20;50.50;;;;;;5014166;28;20033;-57
2023/06/13 04:21:28;;;;;;;3.60;2.30;;;24.10;50.50;;;;;;5014134;28;20026;-54
2023/06/13 04:23:54;;;;;;;7.05;2.30;;;24.10;50.40;;;;;;5014179;28;20084;-55
2023/06/13 04:26:20;;;;;;;6.97;2.58;;;24.10;50.40;;;;;;5014180;28;20036;-58
2023/06/13 04:28:50;;;;;;;4.57;2.20;;;24.20;50.40;;;;;;5013733;28;20045;-53
2023/06/13 04:31:17;;;;;;;3.57;2.20;;;24.20;50.30;;;;;;5015211;28;20125;-58
2023/06/13 04:33:44;;;;;;;3.80;2.10;;;24.20;50.30;;;;;;5015121;28;20113;-57
2023/06/13 04:36:12;;;;;;;6.57;2.05;;;24.20;50.30;;;;;;5015495;28;20096;-57
2023/06/13 04:38:39;;;;;;;3.90;1.95;;;24.20;50.30;;;;;;5014950;28;20030;-58
2023/06/13 04:41:13;;;;;;;4.28;2.10;;;24.20;50.30;;;;;;5014977;28;20026;-58
2023/06/13 04:43:41;;;;;;;7.53;2.47;;;24.20;50.30;;;;;;5015455;28;20026;-57
2023/06/13 04:46:11;;;;;;;3.72;2.30;;;24.20;50.30;;;;;;5015404;28;20026;-58
2023/06/13 04:48:37;;;;;;;3.83;2.28;;;24.20;50.20;;;;;;5015068;28;20030;-58
2023/06/13 04:51:03;;;;;;;3.67;2.10;;;24.20;50.20;;;;;;5014883;28;20034;-58
2023/06/13 04:53:30;;;;;;;5.57;2.15;;;24.20;50.20;;;;;;5014691;28;20033;-57
2023/06/13 04:55:57;;;;;;;7.85;2.35;;;24.20;50.20;;;;;;5014649;28;20036;-57
2023/06/13 04:58:23;;;;;;;7.38;2.75;;;24.20;50.20;;;;;;5014385;28;20026;-58
2023/06/13 05:00:53;;;;;;;5.03;2.33;;;24.20;50.20;;;;;;5014392;28;20034;-58
2023/06/13 05:03:20;;;;;;;3.10;2.05;;;24.20;50.30;;;;;;5014600;28;20037;-57
2023/06/13 05:05:46;;;;;;;4.68;2.10;;;24.20;50.30;;;;;;5014453;28;20026;-56
2023/06/13 05:08:19;;;;;;;5.22;2.20;;;24.20;50.20;;;;;;5014357;28;20255;-57
2023/06/13 05:10:46;;;;;;;7.05;2.22;;;24.20;50.90;;;;;;5014240;28;20563;-58
2023/06/13 05:13:12;;;;;;;5.25;2.38;;;24.20;50.60;;;;;;5014428;28;20516;-57
2023/06/13 05:15:39;;;;;;;5.85;2.25;;;24.20;50.20;;;;;;5014453;28;20111;-55
2023/06/13 05:18:06;;;;;;;5.20;2.20;;;24.20;50.20;;;;;;5013788;28;20080;-58
2023/06/13 05:20:32;;;;;;;6.22;2.35;;;24.20;50.30;;;;;;5014156;28;20401;-53
2023/06/13 05:23:00;;;;;;;4.53;1.90;;;24.20;50.40;;;;;;5014219;28;20025;-58
2023/06/13 05:25:26;;;;;;;4.22;2.25;;;24.10;50.80;;;;;;5014271;28;20029;-57
2023/06/13 05:27:52;;;;;;;5.45;2.15;;;24.20;50.40;;;;;;5014101;28;20056;-58
2023/06/13 05:30:17;;;;;;;4.72;2.45;;;24.20;50.50;;;;;;5014229;28;20033;-58
2023/06/13 05:32:43;;;;;;;3.03;1.98;;;24.20;50.50;;;;;;5033187;23;20077;-60
2023/06/13 05:35:09;;;;;;;4.53;2.17;;;24.20;50.30;;;;;;5013194;28;20516;-58
2023/06/13 05:37:38;;;;;;;4.68;2.08;;;24.20;50.50;;;;;;5012957;28;20038;-59
2023/06/13 05:40:05;;;;;;;3.97;2.05;;;24.10;50.40;;;;;;5013299;28;20049;-58
2023/06/13 05:42:34;;;;;;;4.75;2.03;;;24.10;50.30;;;;;;5013227;28;20053;-61
2023/06/13 05:45:03;;;;;;;3.47;2.08;;;24.10;50.40;;;;;;5013290;28;20494;-59
2023/06/13 05:47:29;;;;;;;4.00;2.03;;;24.10;50.40;;;;;;5011663;28;20057;-59
2023/06/13 05:49:55;;;;;;;3.28;2.00;;;24.20;50.40;;;;;;5013211;28;20033;-60
2023/06/13 05:52:21;;;;;;;4.95;2.10;;;24.10;50.30;;;;;;5013039;28;20100;-58
2023/06/13 05:54:47;;;;;;;5.32;2.30;;;24.20;50.40;;;;;;5013056;28;20034;-59
2023/06/13 05:57:14;;;;;;;4.72;2.00;;;24.10;50.20;;;;;;5012709;28;20037;-60
2023/06/13 05:59:41;;;;;;;3.92;2.30;;;24.20;50.30;;;;;;5013074;28;20579;-61
2023/06/13 06:02:09;;;;;;;6.05;2.20;;;24.20;50.30;;;;;;5012880;28;20097;-61
2023/06/13 06:04:35;;;;;;;4.85;2.33;;;24.20;50.30;;;;;;5012875;28;20144;-61
2023/06/13 06:07:02;;;;;;;4.43;2.30;;;24.10;50.30;;;;;;5012301;28;20033;-61
2023/06/13 06:09:28;;;;;;;4.47;2.20;;;24.20;50.30;;;;;;5012773;28;20057;-60
2023/06/13 06:11:54;;;;;;;3.90;1.88;;;24.20;50.30;;;;;;5012780;28;20088;-60
2023/06/13 06:14:20;;;;;;;2.63;2.15;;;24.20;50.20;;;;;;5012831;28;20034;-57
2023/06/13 06:16:46;;;;;;;6.72;2.55;;;24.10;50.30;;;;;;5011063;28;20133;-60
2023/06/13 06:19:12;;;;;;;5.45;2.53;;;24.20;50.30;;;;;;5012507;28;20068;-60
2023/06/13 06:21:38;;;;;;;6.55;2.42;;;24.20;50.30;;;;;;5011751;28;20021;-57
2023/06/13 06:24:05;;;;;;;4.80;2.47;;;24.20;50.20;;;;;;5012539;28;20022;-59
2023/06/13 06:26:31;;;;;;;5.45;2.47;;;24.20;50.20;;;;;;5012430;28;20057;-56
2023/06/13 06:28:56;;;;;;;4.80;2.10;;;24.20;50.30;;;;;;5012280;28;20501;-60
2023/06/13 06:31:24;;;;;;;6.68;2.33;;;24.20;50.30;;;;;;5012380;28;20037;-57
2023/06/13 06:33:50;;;;;;;4.90;2.60;;;24.20;50.40;;;;;;5012497;28;20026;-59
2023/06/13 06:36:16;;;;;;;4.05;2.17;;;24.20;50.40;;;;;;5012408;28;20022;-60
2023/06/13 06:38:42;;;;;;;6.13;2.38;;;24.10;50.30;;;;;;5012062;28;20044;-62
2023/06/13 06:41:08;;;;;;;7.95;2.70;;;24.10;50.30;;;;;;5013383;28;20026;-61
2023/06/13 06:43:33;;;;;;;5.88;2.40;;;24.20;50.40;;;;;;5012310;28;20028;-61
2023/06/13 06:46:07;;;;;;;5.13;2.55;;;24.20;50.30;;;;;;5011049;28;20034;-60
2023/06/13 06:48:33;;;;;;;4.20;2.28;;;24.20;50.50;;;;;;5011997;28;20036;-60
2023/06/13 06:50:59;;;;;;;4.38;2.05;;;24.20;50.60;;;;;;5012055;28;20373;-59
2023/06/13 06:53:25;;;;;;;7.15;2.83;;;24.10;50.50;;;;;;5012149;28;20044;-58
2023/06/13 06:55:50;;;;;;;5.78;2.15;;;24.10;50.50;;;;;;5012186;28;20053;-56
2023/06/13 06:58:16;;;;;;;5.55;2.45;;;24.20;50.50;;;;;;5011767;28;20036;-59
2023/06/13 07:00:42;;;;;;;7.45;2.60;;;24.10;50.50;;;;;;5011873;28;20044;-59
2023/06/13 07:03:08;;;;;;;5.00;2.58;;;24.10;50.60;;;;;;5011882;28;20431;-60
2023/06/13 07:05:35;;;;;;;6.93;2.70;;;24.20;50.70;;;;;;5011885;28;20113;-60
2023/06/13 07:08:00;;;;;;;7.10;2.30;;;24.20;50.40;;;;;;5011586;28;20045;-58
2023/06/13 07:10:26;;;;;;;15.55;2.75;;;24.20;50.50;;;;;;5011806;28;20030;-60
2023/06/13 07:12:52;;;;;;;4.65;2.30;;;24.10;51.20;;;;;;5011973;28;20030;-59
2023/06/13 07:15:18;;;;;;;9.73;2.42;;;24.20;50.50;;;;;;5011849;28;20030;-60
2023/06/13 07:17:44;;;;;;;9.95;2.75;;;24.10;50.50;;;;;;5011602;28;20121;-59
2023/06/13 07:20:11;;;;;;;6.57;2.65;;;24.10;50.30;;;;;;5011783;28;20025;-60
2023/06/13 07:22:37;;;;;;;4.97;2.40;;;24.10;50.50;;;;;;5011690;28;20145;-59
2023/06/13 07:25:03;;;;;;;13.48;2.80;;;24.20;50.60;;;;;;5011769;28;20026;-60
2023/06/13 07:27:29;;;;;;;8.88;2.90;;;24.10;50.50;;;;;;5011498;28;20057;-60
2023/06/13 07:29:55;;;;;;;12.82;3.50;;;24.00;50.30;;;;;;5002629;28;20049;-58
2023/06/13 07:32:21;;;;;;;16.17;3.22;;;24.00;47.90;;;;;;4999067;28;20489;-61
2023/06/13 07:34:48;;;;;;;9.02;3.90;;;23.90;47.60;;;;;;5011311;28;20028;-60
2023/06/13 07:37:14;;;;;;;11.18;3.40;;;23.90;47.10;;;;;;5010848;28;20030;-58
2023/06/13 07:39:40;;;;;;;10.93;3.60;;;23.90;49.10;;;;;;5011727;28;20036;-61
2023/06/13 07:42:06;;;;;;;7.28;3.50;;;23.90;49.10;;;;;;5011833;28;20030;-60
2023/06/13 07:44:32;;;;;;;13.77;3.22;;;23.90;47.70;;;;;;5012010;28;20057;-59
2023/06/13 07:46:58;;;;;;;10.23;3.28;;;23.90;48.90;;;;;;5012247;28;20668;-59
2023/06/13 07:49:23;;;;;;;10.30;3.78;;;23.90;49.00;;;;;;5012958;28;20045;-58
2023/06/13 07:51:50;;;;;;;9.35;3.60;;;23.90;48.30;;;;;;5012143;28;20033;-60
2023/06/13 07:54:16;;;;;;;9.35;3.45;;;23.90;48.60;;;;;;5012615;28;20429;-59
2023/06/13 07:56:41;;;;;;;12.35;3.63;;;23.90;49.00;;;;;;5011772;28;20030;-59
2023/06/13 07:59:07;;;;;;;11.65;4.00;;;23.90;47.30;;;;;;5011978;28;20030;-59
2023/06/13 08:01:33;;;;;;;8.65;3.38;;;23.90;46.20;;;;;;5012407;28;20038;-63
2023/06/13 08:03:59;;;;;;;8.93;3.80;;;24.00;45.80;;;;;;5012060;28;20022;-59
2023/06/13 08:06:25;;;;;;;8.00;3.40;;;24.00;45.50;;;;;;5011977;28;20612;-59
2023/06/13 08:08:51;;;;;;;16.27;3.97;;;24.00;45.40;;;;;;5003670;28;20026;-58
2023/06/13 08:11:16;;;;;;;9.20;3.85;;;24.00;44.80;;;;;;5011414;28;20430;-61
2023/06/13 08:13:42;;;;;;;9.52;4.00;;;24.00;45.20;;;;;;5011396;28;20076;-60
2023/06/13 08:16:08;;;;;;;8.27;3.80;;;24.10;45.70;;;;;;5011020;28;20489;-58
2023/06/13 08:18:36;;;;;;;8.68;3.95;;;24.00;46.70;;;;;;5011107;28;20034;-56
2023/06/13 08:21:02;;;;;;;10.63;4.15;;;24.00;47.40;;;;;;5011620;28;20026;-60
2023/06/13 08:23:28;;;;;;;13.45;3.75;;;24.00;46.90;;;;;;5011858;28;20088;-59
2023/06/13 08:25:53;;;;;;;8.90;4.05;;;24.00;46.70;;;;;;5011423;28;20069;-60
2023/06/13 08:28:19;;;;;;;8.88;3.80;;;24.00;46.80;;;;;;5012044;28;20030;-57
2023/06/13 08:30:46;;;;;;;7.22;3.53;;;24.00;44.80;;;;;;5011575;28;20520;-59
2023/06/13 08:33:13;;;;;;;8.68;3.92;;;24.00;45.30;;;;;;5011455;28;20037;-61
2023/06/13 08:35:38;;;;;;;9.82;3.78;;;24.00;46.30;;;;;;5010078;28;20064;-59
2023/06/13 08:38:04;;;;;;;12.32;3.78;;;24.00;45.00;;;;;;5011095;28;20038;-58
2023/06/13 08:40:30;;;;;;;18.60;3.97;;;24.00;45.30;;;;;;5011690;28;20512;-59
2023/06/13 08:42:58;;;;;;;13.57;4.13;;;24.00;45.30;;;;;;5011382;28;20021;-56
2023/06/13 08:45:24;;;;;;;9.07;3.90;;;24.00;45.90;;;;;;5010705;28;20026;-59
2023/06/13 08:47:53;;;;;;;11.88;3.90;;;24.00;46.00;;;;;;5011134;28;20049;-57
2023/06/13 08:50:23;;;;;;;11.77;3.75;;;24.00;46.50;;;;;;5011180;28;20022;-59
2023/06/13 08:52:50;;;;;;;17.17;4.40;;;24.00;46.60;;;;;;5011208;28;20076;-58
2023/06/13 08:55:20;;;;;;;11.23;4.05;;;24.00;45.30;;;;;;5011686;28;20034;-58
2023/06/13 08:57:49;;;;;;;;;;;24.00;45.30;;;;;;4993122;28;20409;-56
2023/06/13 09:00:16;;;;;;;8.43;3.60;;;24.00;45.00;;;;;;5010262;28;19936;-60
2023/06/13 09:02:45;;;;;;;7.90;3.80;;;24.00;43.90;;;;;;5010769;28;20495;-58
2023/06/13 09:05:15;;;;;;;11.73;3.58;;;24.00;43.80;;;;;;5011018;28;20489;-59
2023/06/13 09:07:42;;;;;;;12.02;3.85;;;24.10;44.70;;;;;;5010817;28;20040;-60
2023/06/13 09:10:12;;;;;;;18.45;3.88;;;24.10;44.60;;;;;;5011491;28;20044;-56
2023/06/13 09:12:49;;;;;;;11.68;3.80;;;24.10;44.40;;;;;;5010671;28;20072;-61
2023/06/13 09:15:15;;;;;;;10.38;3.80;;;24.20;44.30;;;;;;5010892;28;20638;-54
2023/06/13 09:17:41;;;;;;;7.97;3.72;;;24.20;44.80;;;;;;5010170;28;20029;-57
2023/06/13 09:20:08;;;;;;;13.70;3.90;;;24.20;43.80;;;;;;5010652;28;20030;-58
2023/06/13 09:22:35;;;;;;;12.20;3.85;;;24.20;43.50;;;;;;5011109;28;20026;-61
2023/06/13 09:25:04;;;;;;;10.35;4.05;;;24.20;43.50;;;;;;5010662;28;20029;-57
2023/06/13 09:27:30;;;;;;;11.27;3.58;;;24.20;42.80;;;;;;5009751;28;20029;-59
2023/06/13 09:30:01;;;;;;;11.88;4.28;;;24.20;42.80;;;;;;5010607;28;20022;-57
2023/06/13 09:32:28;;;;;;;26.40;4.28;;;24.20;42.90;;;;;;5009829;28;20448;-60
2023/06/13 09:34:54;;;;;;;21.55;4.10;;;24.20;43.10;;;;;;5010461;28;20030;-59
2023/06/13 09:37:20;;;;;;;20.63;4.03;;;24.20;44.20;;;;;;5010603;28;20104;-61
2023/06/13 09:39:50;;;;;;;16.85;3.90;;;24.20;43.90;;;;;;5010219;28;20117;-61
2023/06/13 09:42:21;;;;;;;17.92;3.80;;;24.20;43.60;;;;;;5010235;28;20026;-61
2023/06/13 09:44:52;;;;;;;13.25;3.63;;;24.20;43.80;;;;;;5010192;28;20025;-61
2023/06/13 09:47:23;;;;;;;11.95;3.70;;;24.20;44.00;;;;;;5009577;28;20030;-59
2023/06/13 09:49:56;;;;;;;13.07;3.80;;;24.20;42.50;;;;;;5010032;28;20025;-59
2023/06/13 09:52:26;;;;;;;7.88;3.33;;;24.20;42.20;;;;;;5010773;28;20025;-62
2023/06/13 09:54:53;;;;;;;12.90;3.70;;;24.20;44.00;;;;;;5008412;28;20025;-61
2023/06/13 09:57:22;;;;;;;6.88;3.53;;;24.20;43.40;;;;;;5008398;28;20520;-59
2023/06/13 09:59:50;;;;;;;6.80;3.38;;;24.20;43.90;;;;;;5009769;28;20497;-61
2023/06/13 10:02:17;;;;;;;10.25;3.78;;;24.20;44.00;;;;;;5009875;28;20560;-61
2023/06/13 10:04:43;;;;;;;10.05;3.45;;;24.20;44.10;;;;;;5009751;28;20033;-60
2023/06/13 10:07:11;;;;;;;10.52;3.38;;;24.20;44.70;;;;;;5010291;28;20033;-57
2023/06/13 10:09:38;;;;;;;9.70;3.40;;;24.20;44.50;;;;;;5010120;28;20192;-57
2023/06/13 10:12:10;;;;;;;9.07;3.65;;;24.20;43.70;;;;;;5006596;28;20520;-58
2023/06/13 10:14:40;;;;;;;10.23;3.58;;;24.20;43.90;;;;;;5009584;28;20497;-55
2023/06/13 10:17:11;;;;;;;9.50;3.65;;;24.20;43.00;;;;;;5009290;28;20125;-58
2023/06/13 10:19:39;;;;;;;13.27;3.20;;;24.20;42.90;;;;;;5010380;28;20022;-59
2023/06/13 10:22:07;;;;;;;17.60;4.00;;;24.20;42.40;;;;;;5009930;28;20033;-57
2023/06/13 10:24:36;;;;;;;11.07;3.50;;;24.20;43.60;;;;;;5009783;28;20026;-57
2023/06/13 10:27:03;;;;;;;18.60;3.97;;;24.30;43.90;;;;;;5009662;28;20117;-55
2023/06/13 10:29:50;;;;;;;13.68;3.78;;;24.20;43.80;;;;;;5009955;28;20071;-59
2023/06/13 10:32:46;;;;;;;13.32;4.20;;;24.30;41.70;;;;;;5009360;28;20060;-60
2023/06/13 10:35:35;;;;;;;14.85;4.00;;;24.40;42.00;;;;;;5010004;28;20068;-59
2023/06/13 10:38:45;;;;;;;13.68;4.30;;;24.30;43.20;;;;;;5008943;28;20034;-59
2023/06/13 10:41:35;;;;;;;19.95;3.42;;;24.40;43.00;;;;;;5003967;28;20024;-60
2023/06/13 10:44:13;;;;;;;10.98;3.80;;;24.40;44.30;;;;;;5002952;28;20026;-61
2023/06/13 10:46:41;;;;;;;15.77;3.90;;;24.40;45.10;;;;;;5009788;28;20036;-61
2023/06/13 10:49:14;;;;;;;8.63;3.10;;;24.30;45.50;;;;;;5009084;28;20018;-60
2023/06/13 10:51:45;;;;;;;18.27;4.10;;;24.40;44.90;;;;;;5008919;28;20471;-59
2023/06/13 10:54:13;;;;;;;11.15;3.70;;;24.30;44.70;;;;;;5004545;28;20058;-61
2023/06/13 10:56:42;;;;;;;10.02;3.67;;;24.30;45.10;;;;;;5004218;28;20485;-59
2023/06/13 10:59:16;;;;;;;9.07;3.20;;;24.30;45.00;;;;;;5008823;28;20021;-60
2023/06/13 11:01:43;;;;;;;11.90;3.53;;;24.30;45.20;;;;;;5009380;28;20123;-60
2023/06/13 11:04:12;;;;;;;14.68;3.85;;;24.30;43.00;;;;;;5019246;28;20448;-61
2023/06/13 11:06:42;;;;;;;14.73;3.65;;;24.30;44.20;;;;;;5008018;28;20029;-61
2023/06/13 11:09:21;;;;;;;15.57;3.30;;;24.30;43.70;;;;;;5008432;28;20390;-59
2023/06/13 11:11:58;;;;;;;11.50;3.22;;;24.30;43.90;;;;;;5008470;28;20049;-59
2023/06/13 11:14:36;;;;;;;19.17;3.92;;;24.30;44.30;;;;;;5008181;28;20040;-61
2023/06/13 11:17:03;;;;;;;14.00;3.03;;;24.20;43.60;;;;;;5016744;28;20087;-60
2023/06/13 11:19:32;;;;;;;10.25;3.75;;;24.20;43.90;;;;;;5008755;28;20048;-61
2023/06/13 11:22:02;;;;;;;13.60;3.65;;;24.20;44.10;;;;;;5008567;28;20497;-60
2023/06/13 11:24:33;;;;;;;6.93;2.92;;;24.20;44.30;;;;;;5008496;28;20026;-60
2023/06/13 11:27:00;;;;;;;10.68;3.60;;;24.20;45.00;;;;;;5007720;28;20036;-61
2023/06/13 11:29:28;;;;;;;9.25;3.47;;;24.20;44.40;;;;;;5008349;28;20326;-57
2023/06/13 11:31:55;;;;;;;9.85;3.50;;;24.20;44.80;;;;;;5033187;23;20455;-57
2023/06/13 11:34:24;;;;;;;10.77;3.38;;;24.20;45.30;;;;;;4966272;28;20094;-56
2023/06/13 11:36:57;;;;;;;13.57;3.45;;;24.20;45.20;;;;;;4970078;28;20504;-57
2023/06/13 11:39:26;;;;;;;16.23;4.05;;;24.30;45.00;;;;;;4970575;28;20035;-56
2023/06/13 11:41:52;;;;;;;;;;;24.30;45.70;;;;;;4971314;28;20030;-57
2023/06/13 11:44:19;;;;;;;11.68;3.80;;;24.30;45.20;;;;;;4989995;28;19909;-56
2023/06/13 11:46:46;;;;;;;10.52;3.03;;;24.20;45.40;;;;;;4989565;28;20032;-54
2023/06/13 11:49:14;;;;;;;8.45;2.95;;;24.30;45.30;;;;;;4990088;28;20061;-54
2023/06/13 11:51:41;;;;;;;7.88;3.22;;;24.30;45.40;;;;;;4989798;28;20033;-58
2023/06/13 11:54:08;;;;;;;17.95;3.53;;;24.30;45.90;;;;;;4989753;28;20080;-54
2023/06/13 11:56:36;;;;;;;8.20;2.97;;;24.30;46.00;;;;;;4989685;28;20097;-55
2023/06/13 11:59:23;;;;;;;11.32;3.22;;;24.30;46.30;;;;;;4985034;28;20037;-56
2023/06/13 12:01:54;;;;;;;13.27;3.20;;;24.30;46.20;;;;;;4987408;28;20039;-53
2023/06/13 12:04:22;;;;;;;7.30;3.10;;;24.30;46.20;;;;;;4988167;28;20037;-52
2023/06/13 12:06:50;;;;;;;14.48;3.35;;;24.30;46.30;;;;;;4986949;28;20026;-56
2023/06/13 12:09:17;;;;;;;18.80;3.13;;;24.30;46.50;;;;;;4987474;28;20077;-56
2023/06/13 12:11:43;;;;;;;8.40;2.85;;;24.30;46.60;;;;;;4970427;28;20030;-56
2023/06/13 12:14:11;;;;;;;11.45;3.03;;;24.40;46.60;;;;;;4987425;28;20073;-54
2023/06/13 12:16:38;;;;;;;8.90;2.83;;;24.40;46.60;;;;;;4987320;28;20117;-57
2023/06/13 12:19:06;;;;;;;8.20;3.22;;;24.40;46.60;;;;;;4987306;28;20452;-55
2023/06/13 12:21:36;;;;;;;8.75;3.58;;;24.40;46.70;;;;;;4988016;28;20027;-56
2023/06/13 12:24:04;;;;;;;8.27;2.85;;;24.40;47.30;;;;;;4990009;28;20050;-52
2023/06/13 12:26:33;;;;;;;8.38;2.70;;;24.40;46.60;;;;;;4991135;28;20033;-57
2023/06/13 12:29:05;;;;;;;10.20;2.55;;;24.40;46.80;;;;;;4990913;28;20038;-52
2023/06/13 12:31:38;;;;;;;11.45;2.85;;;24.40;46.90;;;;;;4991181;28;20113;-54
2023/06/13 12:34:08;;;;;;;6.10;2.70;;;24.40;46.90;;;;;;4990793;28;20044;-56
2023/06/13 12:36:44;;;;;;;7.60;3.00;;;24.40;46.90;;;;;;4989680;28;20076;-50
2023/06/13 12:39:14;;;;;;;9.73;2.88;;;24.40;47.00;;;;;;4992934;28;20145;-52
2023/06/13 12:41:46;;;;;;;11.90;2.97;;;24.40;46.90;;;;;;4992578;28;20026;-51
2023/06/13 12:44:12;;;;;;;24.83;3.50;;;24.40;46.50;;;;;;4991969;28;20494;-55
2023/06/13 12:46:38;;;;;;;8.00;3.35;;;24.30;46.60;;;;;;4975293;28;20398;-51
2023/06/13 12:49:09;;;;;;;13.25;2.85;;;24.30;46.90;;;;;;4992550;28;20034;-54
2023/06/13 12:51:43;;;;;;;11.07;3.13;;;24.30;46.80;;;;;;4992868;28;20100;-56